createdAt,value
2019-04-24T00:05:16.593Z,97915.38
2019-04-24T00:17:13.938Z,97921.54
2019-04-24T00:23:18.061Z,97923.90
2019-04-24T00:41:37.838Z,97912.82
2019-04-24T00:47:54.140Z,97909.88
2019-04-24T00:59:48.854Z,97893.67
2019-04-24T01:06:44.431Z,97895.22
2019-04-24T01:24:39.808Z,97906.07
2019-04-24T01:31:04.947Z,97911.23
2019-04-24T01:49:42.502Z,97908.33
2019-04-24T01:55:32.071Z,97921.41
2019-04-24T02:01:43.787Z,97924.31
2019-04-24T02:13:59.027Z,97935.20
2019-04-24T02:20:15.024Z,97943.42
2019-04-24T02:32:39.850Z,97943.73
2019-04-24T02:39:32.480Z,97952.95
2019-04-24T02:50:58.404Z,97955.36
2019-04-24T03:09:42.951Z,97948.58
2019-04-24T03:46:26.971Z,97956.67
2019-04-24T03:52:54.532Z,97953.23
2019-04-24T04:05:10.539Z,97953.38
2019-04-24T04:11:01.043Z,97961.56
2019-04-24T04:17:35.773Z,97967.26
2019-04-24T04:35:59.361Z,97987.88
2019-04-24T04:41:45.993Z,97987.96
2019-04-24T04:47:39.277Z,97985.92
2019-04-24T04:53:58.611Z,97997.26
2019-04-24T05:00:15.580Z,97992.98
2019-04-24T05:12:34.483Z,98005.42
2019-04-24T05:18:58.337Z,98010.78
2019-04-24T05:25:01.203Z,98008.76
2019-04-24T05:30:50.498Z,98030.48
2019-04-24T05:43:29.775Z,98010.50
2019-04-24T05:49:40.741Z,98034.42
2019-04-24T05:55:48.526Z,98042.89
2019-04-24T06:08:08.565Z,98028.43
2019-04-24T06:14:05.924Z,98053.02
2019-04-24T06:20:36.681Z,98056.68
2019-04-24T06:32:31.213Z,98062.95
2019-04-24T06:39:00.925Z,98061.36
2019-04-24T06:51:04.436Z,98067.95
2019-04-24T07:09:44.081Z,98097.77
2019-04-24T07:22:21.169Z,98092.67
2019-04-24T07:28:40.527Z,98100.03
2019-04-24T07:41:01.625Z,98104.28
2019-04-24T07:47:01.246Z,98100.98
2019-04-24T07:53:15.879Z,98102.77
2019-04-24T07:59:43.315Z,98094.27
2019-04-24T08:11:45.061Z,98100.50
2019-04-24T08:35:59.892Z,98103.55
2019-04-24T08:42:29.409Z,98109.34
2019-04-24T08:48:48.497Z,98106.97
2019-04-24T08:54:40.861Z,98112.68
2019-04-24T09:00:57.346Z,98123.02
2019-04-24T09:06:52.223Z,98119.47
2019-04-24T09:19:16.980Z,98107.56
2019-04-24T09:38:04.530Z,98106.34
2019-04-24T09:44:03.934Z,98116.91
2019-04-24T09:56:31.636Z,98141.35
2019-04-24T10:08:43.467Z,98128.67
2019-04-24T10:14:52.033Z,98135.11
2019-04-24T10:20:46.575Z,98132.95
2019-04-24T10:27:12.157Z,98132.44
2019-04-24T10:33:26.731Z,98131.53
2019-04-24T10:45:51.415Z,98135.39
2019-04-24T10:58:06.589Z,98119.06
2019-04-24T11:04:37.345Z,98112.81
2019-04-24T11:17:11.330Z,98130.95
2019-04-24T11:22:57.954Z,98127.92
2019-04-24T11:28:53.833Z,98129.40
2019-04-24T11:35:17.883Z,98134.91
2019-04-24T11:41:34.148Z,98124.93
2019-04-24T11:53:49.032Z,98121.56
2019-04-24T11:59:38.131Z,98112.64
2019-04-24T12:12:10.073Z,98103.00
2019-04-24T12:24:33.183Z,98099.18
2019-04-24T12:30:41.890Z,98108.93
2019-04-24T12:42:51.143Z,98092.43
2019-04-24T12:49:02.528Z,98088.76
2019-04-24T12:55:23.923Z,98077.52
2019-04-24T13:01:42.706Z,98067.18
2019-04-24T13:08:00.185Z,98058.90
2019-04-24T13:14:04.189Z,98059.98
2019-04-24T13:19:39.051Z,98045.27
2019-04-24T13:26:13.057Z,98039.54
2019-04-24T13:32:44.946Z,98032.85
2019-04-24T13:45:03.007Z,98019.31
2019-04-24T13:51:03.700Z,98020.38
2019-04-24T13:57:14.776Z,98011.47
2019-04-24T14:15:53.744Z,98004.21
2019-04-24T14:21:52.322Z,98003.66
2019-04-24T14:34:18.927Z,97992.61
2019-04-24T14:40:21.570Z,97989.41
2019-04-24T14:52:31.590Z,97996.94
2019-04-24T14:58:37.349Z,97999.95
2019-04-24T15:04:39.406Z,97989.98
2019-04-24T15:10:47.455Z,97987.92
2019-04-24T15:16:59.396Z,97978.08
2019-04-24T15:29:25.791Z,97969.52
2019-04-24T15:35:22.404Z,97964.31
2019-04-24T15:41:36.907Z,97964.44
2019-04-24T15:47:47.731Z,97961.45
2019-04-24T15:53:09.444Z,97962.70
2019-04-24T15:59:43.753Z,97954.25
2019-04-24T16:05:26.922Z,97957.48
2019-04-24T16:11:31.797Z,97953.55
2019-04-24T16:18:05.039Z,97946.80
2019-04-24T16:30:12.744Z,97950.58
2019-04-24T16:36:36.269Z,97952.47
2019-04-24T16:48:37.481Z,97957.45
2019-04-24T16:54:42.321Z,97947.91
2019-04-24T17:01:16.909Z,97943.03
2019-04-24T17:13:12.498Z,97942.83
2019-04-24T17:25:24.822Z,97936.21
2019-04-24T17:31:36.812Z,97934.87
2019-04-24T17:37:13.420Z,97938.80
2019-04-24T17:43:55.031Z,97940.42
2019-04-24T17:50:10.795Z,97947.95
2019-04-24T17:55:53.348Z,97955.31
2019-04-24T18:01:37.175Z,97950.41
2019-04-24T18:07:41.871Z,97948.29
2019-04-24T18:13:46.700Z,97948.36
2019-04-24T18:19:51.421Z,97942.14
2019-04-24T18:26:02.106Z,97944.94
2019-04-24T18:32:07.338Z,97944.83
2019-04-24T18:38:15.890Z,97939.47
2019-04-24T18:44:18.672Z,97938.52
2019-04-24T18:50:23.488Z,97926.75
2019-04-24T18:56:28.038Z,97910.44
2019-04-24T19:02:32.659Z,97915.28
2019-04-24T19:08:37.321Z,97918.88
2019-04-24T19:14:41.919Z,97926.25
2019-04-24T19:20:46.683Z,97928.55
2019-04-24T19:26:51.727Z,97943.91
2019-04-24T19:32:56.453Z,97944.03
2019-04-24T19:39:01.939Z,97935.47
2019-04-24T19:45:07.231Z,97941.98
2019-04-24T19:51:12.258Z,97937.13
2019-04-24T19:57:21.922Z,97941.30
2019-04-24T20:03:23.308Z,97937.55
2019-04-24T20:09:43.031Z,97941.53
2019-04-24T20:15:47.676Z,97940.52
2019-04-24T20:21:52.232Z,97948.77
2019-04-24T20:27:56.785Z,97956.77
2019-04-24T20:34:01.453Z,97966.32
2019-04-24T20:40:08.552Z,98060.20
2019-04-24T20:46:13.181Z,98134.16
2019-04-24T20:52:18.532Z,98152.59
2019-04-24T20:58:24.990Z,98198.31
2019-04-24T21:04:29.632Z,98238.90
2019-04-24T21:10:38.700Z,98289.75
2019-04-24T21:16:43.259Z,98283.20
2019-04-24T21:22:47.847Z,98325.30
2019-04-24T21:28:52.433Z,98366.19
2019-04-24T21:34:57.045Z,98440.33
2019-04-24T21:41:01.714Z,98470.33
2019-04-24T21:47:06.266Z,98503.66
2019-04-24T21:53:11.736Z,98571.64
2019-04-24T21:59:16.441Z,98568.40
2019-04-24T22:05:23.732Z,98556.38
2019-04-24T22:11:29.292Z,98562.14
2019-04-24T22:17:34.094Z,98538.16
2019-04-24T22:23:56.811Z,98534.24
2019-04-24T22:30:01.641Z,98497.63
2019-04-24T22:36:06.809Z,98459.05
2019-04-24T22:42:11.912Z,98448.55
2019-04-24T22:48:16.601Z,98451.78
2019-04-24T22:54:29.147Z,98472.19
2019-04-24T23:00:29.227Z,98493.31
2019-04-24T23:06:34.628Z,98503.12
2019-04-24T23:12:39.536Z,98498.51
2019-04-24T23:18:44.212Z,98519.16
2019-04-24T23:24:59.337Z,98544.80
2019-04-24T23:31:22.250Z,98582.98
2019-04-24T23:37:27.040Z,98611.09
2019-04-24T23:43:31.643Z,98632.21
2019-04-24T23:49:36.940Z,98630.31
2019-04-24T23:55:41.869Z,98638.61
